createdAt,value
2018-08-10T14:52:54.631Z,26.01
2018-08-10T14:55:23.471Z,25.77
2018-08-10T14:57:52.220Z,25.62
2018-08-10T15:00:21.913Z,25.46
2018-08-10T15:02:50.789Z,25.16
2018-08-10T15:05:19.579Z,25.16
2018-08-10T15:07:48.496Z,25.28
2018-08-10T15:10:17.870Z,25.13
2018-08-10T15:12:47.551Z,25.32
2018-08-10T15:15:18.332Z,25.44
2018-08-10T15:17:48.056Z,25.70
2018-08-10T15:20:18.744Z,26.12
2018-08-10T15:22:47.466Z,26.15
2018-08-10T15:25:16.667Z,26.82
2018-08-10T15:27:45.537Z,26.71
2018-08-10T15:30:17.590Z,27.09
2018-08-10T15:32:46.416Z,27.07
2018-08-10T15:35:17.004Z,26.64
2018-08-10T15:37:46.401Z,27.05
2018-08-10T15:40:19.273Z,26.87
2018-08-10T15:42:48.138Z,26.73
2018-08-10T15:45:18.542Z,26.60
2018-08-10T15:47:47.850Z,26.44
2018-08-10T15:50:16.825Z,26.10
2018-08-10T15:52:46.758Z,26.49
2018-08-10T15:55:15.858Z,25.39
2018-08-10T15:57:44.680Z,25.86
2018-08-10T16:00:19.198Z,25.90
2018-08-10T16:02:48.667Z,25.99
2018-08-10T16:05:17.605Z,26.30
2018-08-10T16:07:46.550Z,25.40
2018-08-10T16:10:15.433Z,25.46
2018-08-10T16:12:44.753Z,25.46
2018-08-10T16:15:15.167Z,25.15
2018-08-10T16:17:44.005Z,25.36
2018-08-10T16:20:17.738Z,25.28
2018-08-10T16:22:46.867Z,25.18
2018-08-10T16:25:15.836Z,25.31
2018-08-10T16:27:45.230Z,25.67
2018-08-10T16:30:15.653Z,25.81
2018-08-10T16:32:45.512Z,25.64
2018-08-10T16:35:15.524Z,25.48
2018-08-10T16:37:45.668Z,25.46
2018-08-10T16:40:16.088Z,25.41
2018-08-10T16:42:45.193Z,25.49
2018-08-10T16:45:14.859Z,25.34
2018-08-10T16:47:43.964Z,25.07
2018-08-10T16:50:16.340Z,24.94
2018-08-10T16:52:46.016Z,25.38
2018-08-10T16:55:16.299Z,25.19
2018-08-10T16:57:45.787Z,25.56
2018-08-10T17:00:16.488Z,25.50
2018-08-10T17:02:45.835Z,25.48
2018-08-10T17:05:14.683Z,25.63
2018-08-10T17:07:43.778Z,25.49
2018-08-10T17:10:13.097Z,25.58
2018-08-10T17:12:43.244Z,25.65
2018-08-10T17:15:17.362Z,25.94
2018-08-10T17:17:47.578Z,25.66
2018-08-10T17:20:16.942Z,25.88
2018-08-10T17:22:46.053Z,25.65
2018-08-10T17:25:17.462Z,25.42
2018-08-10T17:27:46.534Z,24.87
2018-08-10T17:30:19.701Z,24.71
2018-08-10T17:32:48.543Z,24.80
2018-08-10T17:35:18.401Z,24.96
2018-08-10T17:37:47.627Z,24.71
2018-08-10T17:40:16.325Z,24.61
2018-08-10T17:42:44.998Z,24.28
2018-08-10T17:45:15.826Z,24.30
2018-08-10T17:47:44.640Z,24.32
2018-08-10T17:50:15.765Z,24.30
2018-08-10T17:52:47.323Z,24.45
2018-08-10T17:55:17.113Z,24.48
2018-08-10T17:57:46.467Z,24.50
2018-08-10T18:00:20.034Z,24.47
2018-08-10T18:02:49.621Z,24.38
2018-08-10T18:05:19.127Z,24.48
2018-08-10T18:07:48.004Z,24.44
2018-08-10T18:10:18.018Z,24.23
2018-08-10T18:12:47.256Z,24.20
2018-08-10T18:15:17.671Z,24.05
2018-08-10T18:17:47.235Z,24.06
2018-08-10T18:20:18.775Z,24.14
2018-08-10T18:22:48.963Z,24.20
2018-08-10T18:25:19.303Z,24.09
2018-08-10T18:27:48.283Z,23.84
2018-08-10T18:30:19.521Z,23.87
2018-08-10T18:32:48.693Z,23.85
2018-08-10T18:35:17.581Z,23.67
2018-08-10T18:37:47.461Z,23.70
2018-08-10T18:40:17.345Z,23.80
2018-08-10T18:42:47.436Z,23.87
2018-08-10T18:45:19.717Z,23.81
2018-08-10T18:47:48.949Z,23.83
2018-08-10T18:50:18.844Z,23.88
2018-08-10T18:52:47.721Z,23.93
2018-08-10T18:55:19.045Z,23.70
2018-08-10T18:57:47.968Z,23.74
2018-08-10T19:00:19.855Z,23.72
2018-08-10T19:02:48.951Z,23.76
2018-08-10T19:05:18.220Z,23.54
2018-08-10T19:07:47.857Z,23.54
2018-08-10T19:10:20.014Z,23.22
2018-08-10T19:12:49.104Z,23.05
2018-08-10T19:15:17.923Z,22.96
2018-08-10T19:17:46.809Z,22.99
2018-08-10T19:20:16.274Z,22.71
2018-08-10T19:22:45.513Z,22.56
2018-08-10T19:25:17.240Z,22.48
2018-08-10T19:27:45.975Z,22.50
2018-08-10T19:30:22.235Z,22.43
2018-08-10T19:32:51.137Z,22.37
2018-08-10T19:35:20.285Z,22.27
2018-08-10T19:37:49.279Z,22.19
2018-08-10T19:40:19.313Z,22.22
2018-08-10T19:42:48.289Z,22.01
2018-08-10T19:45:17.793Z,22.02
2018-08-10T19:47:46.664Z,22.02
2018-08-10T19:50:16.804Z,21.70
2018-08-10T19:52:45.551Z,21.81
2018-08-10T19:55:16.244Z,21.85
2018-08-10T19:57:45.050Z,21.79
2018-08-10T20:00:15.838Z,21.71
2018-08-10T20:02:46.827Z,21.58
2018-08-10T20:05:16.186Z,21.52
2018-08-10T20:07:45.636Z,21.45
2018-08-10T20:10:15.060Z,21.42
2018-08-10T20:12:44.090Z,21.34
2018-08-10T20:15:14.689Z,21.37
2018-08-10T20:17:43.649Z,21.31
2018-08-10T20:20:15.489Z,21.09
2018-08-10T20:22:44.906Z,21.03
2018-08-10T20:25:15.018Z,20.94
2018-08-10T20:27:43.814Z,20.90
2018-08-10T20:30:15.394Z,20.85
2018-08-10T20:32:44.873Z,20.81
2018-08-10T20:35:15.211Z,20.75
2018-08-10T20:37:45.025Z,20.65
2018-08-10T20:40:17.263Z,20.64
2018-08-10T20:42:46.108Z,20.57
2018-08-10T20:45:15.617Z,20.46
2018-08-10T20:47:44.476Z,20.45
2018-08-10T20:50:23.946Z,20.43
2018-08-10T20:52:53.153Z,20.27
2018-08-10T20:55:22.552Z,20.27
2018-08-10T20:57:51.681Z,20.25
2018-08-10T21:00:20.405Z,20.25
2018-08-10T21:02:49.374Z,20.18
2018-08-10T21:05:18.106Z,20.14
2018-08-10T21:07:46.866Z,20.06
2018-08-10T21:10:16.918Z,20.09
2018-08-10T21:12:46.577Z,20.05
2018-08-10T21:15:16.205Z,20.04
2018-08-10T21:17:45.733Z,19.98
2018-08-10T21:20:16.541Z,20.04
2018-08-10T21:22:45.339Z,20.04
2018-08-10T21:25:14.634Z,20.06
2018-08-10T21:27:44.065Z,20.05
2018-08-10T21:30:16.336Z,20.06
2018-08-10T21:32:45.257Z,20.05
2018-08-10T21:35:16.426Z,19.95
2018-08-10T21:37:45.468Z,19.88
2018-08-10T21:40:15.009Z,19.84
2018-08-10T21:42:44.242Z,19.73
2018-08-10T21:45:13.243Z,19.71
2018-08-10T21:47:42.032Z,19.66
2018-08-10T21:50:15.173Z,19.52
2018-08-10T21:52:45.056Z,19.49
2018-08-10T21:55:13.813Z,19.51
2018-08-10T21:57:42.838Z,19.47
2018-08-10T22:00:51.322Z,19.43
2018-08-10T22:03:21.500Z,19.42
2018-08-10T22:05:50.541Z,19.40
2018-08-10T22:08:20.911Z,19.34
2018-08-10T22:10:49.885Z,19.35
2018-08-10T22:13:24.213Z,19.31
2018-08-10T22:15:58.137Z,19.27
2018-08-10T22:18:32.030Z,19.20
2018-08-10T22:21:00.896Z,19.19
2018-08-10T22:23:30.202Z,19.28
2018-08-10T22:25:59.965Z,19.20
2018-08-10T22:28:28.924Z,19.15
2018-08-10T22:30:58.118Z,19.13
2018-08-10T22:33:26.805Z,19.18
2018-08-10T22:35:55.614Z,19.20
2018-08-10T22:38:24.354Z,19.00
2018-08-10T22:40:53.221Z,18.96
2018-08-10T22:43:22.080Z,18.81
2018-08-10T22:45:50.988Z,18.75
2018-08-10T22:48:19.733Z,18.82
2018-08-10T22:50:48.425Z,18.81
2018-08-10T22:53:17.220Z,18.65
2018-08-10T22:55:46.035Z,18.66
2018-08-10T22:58:14.799Z,18.65
2018-08-10T23:00:43.559Z,18.69
2018-08-10T23:03:12.350Z,18.72
2018-08-10T23:05:41.023Z,18.65
2018-08-10T23:08:10.353Z,18.65
2018-08-10T23:10:39.258Z,18.66
2018-08-10T23:13:08.178Z,18.55
2018-08-10T23:15:36.994Z,18.49
2018-08-10T23:18:06.363Z,18.39
2018-08-10T23:20:35.205Z,18.39
2018-08-10T23:23:04.145Z,18.37
2018-08-10T23:25:32.982Z,18.27
2018-08-10T23:28:01.917Z,18.26
2018-08-10T23:30:30.661Z,18.26
2018-08-10T23:32:59.634Z,18.23
2018-08-10T23:35:28.398Z,18.24
2018-08-10T23:37:57.193Z,18.24
2018-08-10T23:40:26.181Z,18.17
2018-08-10T23:42:55.089Z,18.25
2018-08-10T23:45:24.139Z,18.19
2018-08-10T23:47:52.989Z,18.03
2018-08-10T23:50:21.724Z,18.06
2018-08-10T23:52:50.518Z,18.02
2018-08-10T23:55:20.546Z,18.02
2018-08-10T23:57:49.406Z,17.90
